sensor_id;sensor_type;location;lat;lon;timestamp;temperature;humidity
12049;DHT22;6085;49.452;8.502;2024-02-28T00:02:30;4.50;99.90
12049;DHT22;6085;49.452;8.502;2024-02-28T00:06:32;4.40;99.90
12049;DHT22;6085;49.452;8.502;2024-02-28T00:10:34;4.30;99.90
12049;DHT22;6085;49.452;8.502;2024-02-28T00:14:37;4.20;99.90
12049;DHT22;6085;49.452;8.502;2024-02-28T00:18:39;4.10;99.90
12049;DHT22;6085;49.452;8.502;2024-02-28T00:22:41;4.00;99.90
12049;DHT22;6085;49.452;8.502;2024-02-28T00:26:43;3.90;99.90
12049;DHT22;6085;49.452;8.502;2024-02-28T00:30:47;3.80;99.90
12049;DHT22;6085;49.452;8.502;2024-02-28T00:34:48;3.70;99.90
12049;DHT22;6085;49.452;8.502;2024-02-28T00:38:51;3.70;99.90
12049;DHT22;6085;49.452;8.502;2024-02-28T00:42:53;3.60;99.90
12049;DHT22;6085;49.452;8.502;2024-02-28T00:46:56;3.60;99.90
12049;DHT22;6085;49.452;8.502;2024-02-28T00:50:58;3.50;99.90
12049;DHT22;6085;49.452;8.502;2024-02-28T00:54:59;3.40;99.90
12049;DHT22;6085;49.452;8.502;2024-02-28T00:59:01;3.40;99.90
12049;DHT22;6085;49.452;8.502;2024-02-28T01:03:04;3.30;99.90
12049;DHT22;6085;49.452;8.502;2024-02-28T01:07:09;3.40;99.90
12049;DHT22;6085;49.452;8.502;2024-02-28T01:11:11;3.30;99.90
12049;DHT22;6085;49.452;8.502;2024-02-28T01:15:13;3.30;99.90
12049;DHT22;6085;49.452;8.502;2024-02-28T01:19:16;3.20;99.90
12049;DHT22;6085;49.452;8.502;2024-02-28T01:23:18;3.20;99.90
12049;DHT22;6085;49.452;8.502;2024-02-28T01:27:20;3.20;99.90
12049;DHT22;6085;49.452;8.502;2024-02-28T01:31:22;3.20;99.90
12049;DHT22;6085;49.452;8.502;2024-02-28T01:35:25;3.20;99.90
12049;DHT22;6085;49.452;8.502;2024-02-28T01:39:27;3.20;99.90
12049;DHT22;6085;49.452;8.502;2024-02-28T01:43:28;3.30;99.90
12049;DHT22;6085;49.452;8.502;2024-02-28T01:47:31;3.30;99.90
12049;DHT22;6085;49.452;8.502;2024-02-28T01:51:34;3.30;99.90
12049;DHT22;6085;49.452;8.502;2024-02-28T01:55:36;3.30;99.90
12049;DHT22;6085;49.452;8.502;2024-02-28T01:59:38;3.30;99.90
12049;DHT22;6085;49.452;8.502;2024-02-28T02:03:41;3.40;99.90
12049;DHT22;6085;49.452;8.502;2024-02-28T02:07:44;3.40;99.90
12049;DHT22;6085;49.452;8.502;2024-02-28T02:11:46;3.30;99.90
12049;DHT22;6085;49.452;8.502;2024-02-28T02:15:47;3.30;99.90
12049;DHT22;6085;49.452;8.502;2024-02-28T02:19:49;3.30;99.90
12049;DHT22;6085;49.452;8.502;2024-02-28T02:23:52;3.30;99.90
12049;DHT22;6085;49.452;8.502;2024-02-28T02:27:54;3.40;99.90
12049;DHT22;6085;49.452;8.502;2024-02-28T02:31:56;3.30;99.90
12049;DHT22;6085;49.452;8.502;2024-02-28T02:35:58;3.30;99.90
12049;DHT22;6085;49.452;8.502;2024-02-28T02:40:01;3.30;99.90
12049;DHT22;6085;49.452;8.502;2024-02-28T02:44:03;3.30;99.90
12049;DHT22;6085;49.452;8.502;2024-02-28T02:48:06;3.30;99.90
12049;DHT22;6085;49.452;8.502;2024-02-28T02:52:08;3.30;99.90
12049;DHT22;6085;49.452;8.502;2024-02-28T02:56:11;3.20;99.90
12049;DHT22;6085;49.452;8.502;2024-02-28T03:00:13;3.20;99.90
12049;DHT22;6085;49.452;8.502;2024-02-28T03:04:15;3.10;99.90
12049;DHT22;6085;49.452;8.502;2024-02-28T03:08:17;3.10;99.90
12049;DHT22;6085;49.452;8.502;2024-02-28T03:12:20;3.00;99.90
12049;DHT22;6085;49.452;8.502;2024-02-28T03:16:22;3.00;99.90
12049;DHT22;6085;49.452;8.502;2024-02-28T03:20:24;3.00;99.90
12049;DHT22;6085;49.452;8.502;2024-02-28T03:24:26;3.00;99.90
12049;DHT22;6085;49.452;8.502;2024-02-28T03:28:29;2.90;99.90
12049;DHT22;6085;49.452;8.502;2024-02-28T03:32:31;2.90;99.90
12049;DHT22;6085;49.452;8.502;2024-02-28T03:36:33;2.80;99.90
12049;DHT22;6085;49.452;8.502;2024-02-28T03:40:35;2.60;99.90
12049;DHT22;6085;49.452;8.502;2024-02-28T03:44:38;2.40;99.90
12049;DHT22;6085;49.452;8.502;2024-02-28T03:48:40;2.50;99.90
12049;DHT22;6085;49.452;8.502;2024-02-28T03:52:41;2.50;99.90
12049;DHT22;6085;49.452;8.502;2024-02-28T03:56:43;2.40;99.90
12049;DHT22;6085;49.452;8.502;2024-02-28T04:00:46;2.30;99.90
12049;DHT22;6085;49.452;8.502;2024-02-28T04:04:48;2.10;99.90
12049;DHT22;6085;49.452;8.502;2024-02-28T04:08:50;2.10;99.90
12049;DHT22;6085;49.452;8.502;2024-02-28T04:12:52;2.10;99.90
12049;DHT22;6085;49.452;8.502;2024-02-28T04:16:55;2.20;99.90
12049;DHT22;6085;49.452;8.502;2024-02-28T04:20:57;2.10;99.90
12049;DHT22;6085;49.452;8.502;2024-02-28T04:24:59;2.00;99.90
12049;DHT22;6085;49.452;8.502;2024-02-28T04:29:01;2.00;99.90
12049;DHT22;6085;49.452;8.502;2024-02-28T04:33:06;1.90;99.90
12049;DHT22;6085;49.452;8.502;2024-02-28T04:37:09;1.90;99.90
12049;DHT22;6085;49.452;8.502;2024-02-28T04:41:10;1.90;99.90
12049;DHT22;6085;49.452;8.502;2024-02-28T04:45:12;1.80;99.90
12049;DHT22;6085;49.452;8.502;2024-02-28T04:49:16;1.80;99.90
12049;DHT22;6085;49.452;8.502;2024-02-28T04:53:17;1.70;99.90
12049;DHT22;6085;49.452;8.502;2024-02-28T04:57:19;1.70;99.90
12049;DHT22;6085;49.452;8.502;2024-02-28T05:01:21;1.70;99.90
12049;DHT22;6085;49.452;8.502;2024-02-28T05:05:25;1.60;99.90
12049;DHT22;6085;49.452;8.502;2024-02-28T05:09:26;1.60;99.90
12049;DHT22;6085;49.452;8.502;2024-02-28T05:13:28;1.50;99.90
12049;DHT22;6085;49.452;8.502;2024-02-28T05:17:30;1.50;99.90
12049;DHT22;6085;49.452;8.502;2024-02-28T05:21:39;1.50;99.90
12049;DHT22;6085;49.452;8.502;2024-02-28T05:25:41;1.40;99.90
12049;DHT22;6085;49.452;8.502;2024-02-28T05:29:43;1.50;99.90
12049;DHT22;6085;49.452;8.502;2024-02-28T05:33:45;1.50;99.90
12049;DHT22;6085;49.452;8.502;2024-02-28T05:37:48;1.50;99.90
12049;DHT22;6085;49.452;8.502;2024-02-28T05:41:50;1.50;99.90
12049;DHT22;6085;49.452;8.502;2024-02-28T05:45:51;1.60;99.90
12049;DHT22;6085;49.452;8.502;2024-02-28T05:49:53;1.50;99.90
12049;DHT22;6085;49.452;8.502;2024-02-28T05:53:57;1.40;99.90
12049;DHT22;6085;49.452;8.502;2024-02-28T05:57:59;1.40;99.90
12049;DHT22;6085;49.452;8.502;2024-02-28T06:02:01;1.40;99.90
12049;DHT22;6085;49.452;8.502;2024-02-28T06:06:04;1.30;99.90
12049;DHT22;6085;49.452;8.502;2024-02-28T06:10:08;1.20;99.90
12049;DHT22;6085;49.452;8.502;2024-02-28T06:14:11;1.00;99.90
12049;DHT22;6085;49.452;8.502;2024-02-28T06:18:12;1.00;99.90
12049;DHT22;6085;49.452;8.502;2024-02-28T06:22:14;1.00;99.90
12049;DHT22;6085;49.452;8.502;2024-02-28T06:26:20;1.00;99.90
12049;DHT22;6085;49.452;8.502;2024-02-28T06:30:22;1.00;99.90
12049;DHT22;6085;49.452;8.502;2024-02-28T06:34:23;1.00;99.90
12049;DHT22;6085;49.452;8.502;2024-02-28T06:38:25;1.00;99.90
12049;DHT22;6085;49.452;8.502;2024-02-28T06:42:28;1.10;99.90
12049;DHT22;6085;49.452;8.502;2024-02-28T06:46:30;1.30;99.90
12049;DHT22;6085;49.452;8.502;2024-02-28T06:50:32;1.50;99.90
12049;DHT22;6085;49.452;8.502;2024-02-28T06:54:34;1.80;99.90
12049;DHT22;6085;49.452;8.502;2024-02-28T06:58:37;2.00;99.90
12049;DHT22;6085;49.452;8.502;2024-02-28T07:02:39;2.20;99.90
12049;DHT22;6085;49.452;8.502;2024-02-28T07:06:41;2.40;99.90
12049;DHT22;6085;49.452;8.502;2024-02-28T07:10:42;2.60;99.90
12049;DHT22;6085;49.452;8.502;2024-02-28T07:14:49;3.00;99.90
12049;DHT22;6085;49.452;8.502;2024-02-28T07:18:51;3.40;99.90
12049;DHT22;6085;49.452;8.502;2024-02-28T07:22:53;4.00;99.90
12049;DHT22;6085;49.452;8.502;2024-02-28T07:26:55;4.40;99.90
12049;DHT22;6085;49.452;8.502;2024-02-28T07:30:59;4.60;99.90
12049;DHT22;6085;49.452;8.502;2024-02-28T07:35:00;4.80;99.90
12049;DHT22;6085;49.452;8.502;2024-02-28T07:39:03;5.60;99.90
12049;DHT22;6085;49.452;8.502;2024-02-28T07:43:05;6.20;99.90
12049;DHT22;6085;49.452;8.502;2024-02-28T07:47:08;6.90;99.90
12049;DHT22;6085;49.452;8.502;2024-02-28T07:51:10;7.30;99.90
12049;DHT22;6085;49.452;8.502;2024-02-28T07:55:12;7.20;99.90
12049;DHT22;6085;49.452;8.502;2024-02-28T07:59:14;6.90;99.90
12049;DHT22;6085;49.452;8.502;2024-02-28T08:03:17;6.70;99.90
12049;DHT22;6085;49.452;8.502;2024-02-28T08:07:19;6.80;99.90
12049;DHT22;6085;49.452;8.502;2024-02-28T08:11:20;7.00;99.90
12049;DHT22;6085;49.452;8.502;2024-02-28T08:15:23;7.20;99.90
12049;DHT22;6085;49.452;8.502;2024-02-28T08:19:27;7.30;99.90
12049;DHT22;6085;49.452;8.502;2024-02-28T08:23:29;7.70;99.90
12049;DHT22;6085;49.452;8.502;2024-02-28T08:27:31;8.60;99.90
12049;DHT22;6085;49.452;8.502;2024-02-28T08:31:40;9.40;99.90
12049;DHT22;6085;49.452;8.502;2024-02-28T08:35:43;10.20;99.90
12049;DHT22;6085;49.452;8.502;2024-02-28T08:39:45;10.90;99.90
12049;DHT22;6085;49.452;8.502;2024-02-28T08:43:47;12.30;99.90
12049;DHT22;6085;49.452;8.502;2024-02-28T08:47:49;13.00;99.90
12049;DHT22;6085;49.452;8.502;2024-02-28T08:51:52;14.30;99.90
12049;DHT22;6085;49.452;8.502;2024-02-28T08:55:54;15.40;99.90
12049;DHT22;6085;49.452;8.502;2024-02-28T08:59:56;16.20;99.90
12049;DHT22;6085;49.452;8.502;2024-02-28T09:03:57;16.80;99.90
12049;DHT22;6085;49.452;8.502;2024-02-28T09:08:01;16.80;99.90
12049;DHT22;6085;49.452;8.502;2024-02-28T09:12:03;16.60;99.90
12049;DHT22;6085;49.452;8.502;2024-02-28T09:16:05;16.80;99.90
12049;DHT22;6085;49.452;8.502;2024-02-28T09:20:08;17.80;99.70
12049;DHT22;6085;49.452;8.502;2024-02-28T09:24:11;18.90;98.00
12049;DHT22;6085;49.452;8.502;2024-02-28T09:28:13;19.10;95.20
12049;DHT22;6085;49.452;8.502;2024-02-28T09:32:16;19.10;94.10
12049;DHT22;6085;49.452;8.502;2024-02-28T09:36:19;19.10;93.70
12049;DHT22;6085;49.452;8.502;2024-02-28T09:40:22;18.80;93.60
12049;DHT22;6085;49.452;8.502;2024-02-28T09:44:24;17.70;94.20
12049;DHT22;6085;49.452;8.502;2024-02-28T09:48:27;17.20;95.00
12049;DHT22;6085;49.452;8.502;2024-02-28T09:52:30;17.90;94.50
12049;DHT22;6085;49.452;8.502;2024-02-28T09:56:33;18.10;94.00
12049;DHT22;6085;49.452;8.502;2024-02-28T10:00:36;17.90;94.40
12049;DHT22;6085;49.452;8.502;2024-02-28T10:04:39;16.90;95.40
12049;DHT22;6085;49.452;8.502;2024-02-28T10:08:41;16.00;96.30
12049;DHT22;6085;49.452;8.502;2024-02-28T10:12:44;16.40;96.30
12049;DHT22;6085;49.452;8.502;2024-02-28T10:16:46;15.70;96.80
12049;DHT22;6085;49.452;8.502;2024-02-28T10:20:48;15.00;98.50
12049;DHT22;6085;49.452;8.502;2024-02-28T10:24:57;14.90;98.30
12049;DHT22;6085;49.452;8.502;2024-02-28T10:29:00;14.30;99.90
12049;DHT22;6085;49.452;8.502;2024-02-28T10:33:02;14.00;99.90
12049;DHT22;6085;49.452;8.502;2024-02-28T10:37:05;14.40;99.90
12049;DHT22;6085;49.452;8.502;2024-02-28T10:41:07;16.50;97.90
12049;DHT22;6085;49.452;8.502;2024-02-28T10:45:11;17.60;95.90
12049;DHT22;6085;49.452;8.502;2024-02-28T10:49:13;16.30;97.00
12049;DHT22;6085;49.452;8.502;2024-02-28T10:53:15;14.60;99.30
12049;DHT22;6085;49.452;8.502;2024-02-28T10:57:17;12.60;99.90
12049;DHT22;6085;49.452;8.502;2024-02-28T11:01:21;11.80;99.90
12049;DHT22;6085;49.452;8.502;2024-02-28T11:05:24;11.80;99.90
12049;DHT22;6085;49.452;8.502;2024-02-28T11:09:36;11.40;99.90
12049;DHT22;6085;49.452;8.502;2024-02-28T11:13:38;11.00;99.90
12049;DHT22;6085;49.452;8.502;2024-02-28T11:17:41;12.10;99.90
12049;DHT22;6085;49.452;8.502;2024-02-28T11:21:43;14.10;99.90
12049;DHT22;6085;49.452;8.502;2024-02-28T11:25:45;13.90;99.90
12049;DHT22;6085;49.452;8.502;2024-02-28T11:29:47;13.10;99.90
12049;DHT22;6085;49.452;8.502;2024-02-28T11:33:51;12.30;99.90
12049;DHT22;6085;49.452;8.502;2024-02-28T11:37:54;11.70;99.90
12049;DHT22;6085;49.452;8.502;2024-02-28T11:42:08;11.20;99.90
12049;DHT22;6085;49.452;8.502;2024-02-28T11:46:12;11.10;99.90
12049;DHT22;6085;49.452;8.502;2024-02-28T11:50:15;11.00;99.90
12049;DHT22;6085;49.452;8.502;2024-02-28T11:54:19;11.60;99.90
12049;DHT22;6085;49.452;8.502;2024-02-28T11:58:21;11.60;99.90
12049;DHT22;6085;49.452;8.502;2024-02-28T12:02:23;12.20;99.90
12049;DHT22;6085;49.452;8.502;2024-02-28T12:06:29;13.40;99.90
12049;DHT22;6085;49.452;8.502;2024-02-28T12:10:31;13.70;99.90
12049;DHT22;6085;49.452;8.502;2024-02-28T12:14:36;13.70;99.90
12049;DHT22;6085;49.452;8.502;2024-02-28T12:18:40;13.80;99.90
12049;DHT22;6085;49.452;8.502;2024-02-28T12:22:43;14.20;99.90
12049;DHT22;6085;49.452;8.502;2024-02-28T12:26:45;14.90;99.90
12049;DHT22;6085;49.452;8.502;2024-02-28T12:30:47;15.60;99.90
12049;DHT22;6085;49.452;8.502;2024-02-28T12:34:49;14.90;99.90
12049;DHT22;6085;49.452;8.502;2024-02-28T12:38:52;14.80;99.90
12049;DHT22;6085;49.452;8.502;2024-02-28T12:42:54;14.70;99.90
12049;DHT22;6085;49.452;8.502;2024-02-28T12:46:57;14.30;99.90
12049;DHT22;6085;49.452;8.502;2024-02-28T12:50:59;14.50;99.90
12049;DHT22;6085;49.452;8.502;2024-02-28T12:55:02;14.70;99.90
12049;DHT22;6085;49.452;8.502;2024-02-28T12:59:05;14.80;99.90
12049;DHT22;6085;49.452;8.502;2024-02-28T13:03:08;15.20;99.90
12049;DHT22;6085;49.452;8.502;2024-02-28T13:07:10;15.70;99.90
12049;DHT22;6085;49.452;8.502;2024-02-28T13:11:14;15.60;99.90
12049;DHT22;6085;49.452;8.502;2024-02-28T13:15:16;15.00;99.90
12049;DHT22;6085;49.452;8.502;2024-02-28T13:19:18;15.20;99.90
12049;DHT22;6085;49.452;8.502;2024-02-28T13:23:20;15.90;99.90
12049;DHT22;6085;49.452;8.502;2024-02-28T13:27:23;15.80;99.90
12049;DHT22;6085;49.452;8.502;2024-02-28T13:31:28;15.70;99.90
12049;DHT22;6085;49.452;8.502;2024-02-28T13:35:30;16.00;99.90
12049;DHT22;6085;49.452;8.502;2024-02-28T13:39:32;15.80;99.90
12049;DHT22;6085;49.452;8.502;2024-02-28T13:43:36;16.00;99.90
12049;DHT22;6085;49.452;8.502;2024-02-28T13:47:38;16.50;99.90
12049;DHT22;6085;49.452;8.502;2024-02-28T13:51:41;16.40;99.90
12049;DHT22;6085;49.452;8.502;2024-02-28T13:55:43;16.10;99.90
12049;DHT22;6085;49.452;8.502;2024-02-28T13:59:47;15.70;99.90
12049;DHT22;6085;49.452;8.502;2024-02-28T14:03:49;15.40;99.90
12049;DHT22;6085;49.452;8.502;2024-02-28T14:07:51;15.20;99.90
12049;DHT22;6085;49.452;8.502;2024-02-28T14:11:53;15.40;99.90
12049;DHT22;6085;49.452;8.502;2024-02-28T14:15:56;15.30;99.90
12049;DHT22;6085;49.452;8.502;2024-02-28T14:19:58;14.80;99.90
12049;DHT22;6085;49.452;8.502;2024-02-28T14:24:01;14.30;99.90
12049;DHT22;6085;49.452;8.502;2024-02-28T14:28:03;14.40;99.90
12049;DHT22;6085;49.452;8.502;2024-02-28T14:32:07;14.60;99.90
12049;DHT22;6085;49.452;8.502;2024-02-28T14:36:11;14.80;99.90
12049;DHT22;6085;49.452;8.502;2024-02-28T14:40:13;15.20;99.90
12049;DHT22;6085;49.452;8.502;2024-02-28T14:44:17;15.10;99.90
12049;DHT22;6085;49.452;8.502;2024-02-28T14:48:24;14.50;99.90
12049;DHT22;6085;49.452;8.502;2024-02-28T14:52:26;14.20;99.90
12049;DHT22;6085;49.452;8.502;2024-02-28T14:56:28;14.10;99.90
12049;DHT22;6085;49.452;8.502;2024-02-28T15:00:29;14.00;99.90
12049;DHT22;6085;49.452;8.502;2024-02-28T15:04:33;13.50;99.90
12049;DHT22;6085;49.452;8.502;2024-02-28T15:08:35;13.30;99.90
12049;DHT22;6085;49.452;8.502;2024-02-28T15:12:37;13.20;99.90
12049;DHT22;6085;49.452;8.502;2024-02-28T15:16:41;13.30;99.90
12049;DHT22;6085;49.452;8.502;2024-02-28T15:20:44;13.40;99.90
12049;DHT22;6085;49.452;8.502;2024-02-28T15:24:46;13.50;99.90
12049;DHT22;6085;49.452;8.502;2024-02-28T15:28:48;13.40;99.90
12049;DHT22;6085;49.452;8.502;2024-02-28T15:32:50;13.50;99.90
12049;DHT22;6085;49.452;8.502;2024-02-28T15:36:54;13.50;99.90
12049;DHT22;6085;49.452;8.502;2024-02-28T15:40:56;13.70;99.90
12049;DHT22;6085;49.452;8.502;2024-02-28T15:44:57;13.80;99.90
12049;DHT22;6085;49.452;8.502;2024-02-28T15:48:59;13.70;99.90
12049;DHT22;6085;49.452;8.502;2024-02-28T15:53:04;13.30;99.90
12049;DHT22;6085;49.452;8.502;2024-02-28T15:57:06;12.90;99.90
12049;DHT22;6085;49.452;8.502;2024-02-28T16:01:08;12.50;99.90
12049;DHT22;6085;49.452;8.502;2024-02-28T16:05:10;12.20;99.90
12049;DHT22;6085;49.452;8.502;2024-02-28T16:09:14;11.90;99.90
12049;DHT22;6085;49.452;8.502;2024-02-28T16:13:16;11.60;99.90
12049;DHT22;6085;49.452;8.502;2024-02-28T16:17:18;11.30;99.90
12049;DHT22;6085;49.452;8.502;2024-02-28T16:21:20;11.00;99.90
12049;DHT22;6085;49.452;8.502;2024-02-28T16:25:24;10.80;99.90
12049;DHT22;6085;49.452;8.502;2024-02-28T16:29:30;10.60;99.90
12049;DHT22;6085;49.452;8.502;2024-02-28T16:33:31;10.40;99.90
12049;DHT22;6085;49.452;8.502;2024-02-28T16:37:33;10.10;99.90
12049;DHT22;6085;49.452;8.502;2024-02-28T16:41:37;9.80;99.90
12049;DHT22;6085;49.452;8.502;2024-02-28T16:45:39;9.50;99.90
12049;DHT22;6085;49.452;8.502;2024-02-28T16:49:40;9.30;99.90
12049;DHT22;6085;49.452;8.502;2024-02-28T16:53:43;9.00;99.90
12049;DHT22;6085;49.452;8.502;2024-02-28T16:57:46;8.80;99.90
12049;DHT22;6085;49.452;8.502;2024-02-28T17:01:47;8.50;99.90
12049;DHT22;6085;49.452;8.502;2024-02-28T17:05:50;8.20;99.90
12049;DHT22;6085;49.452;8.502;2024-02-28T17:09:52;7.90;99.90
12049;DHT22;6085;49.452;8.502;2024-02-28T17:13:55;7.70;99.90
12049;DHT22;6085;49.452;8.502;2024-02-28T17:17:57;7.50;99.90
12049;DHT22;6085;49.452;8.502;2024-02-28T17:21:59;7.30;99.90
12049;DHT22;6085;49.452;8.502;2024-02-28T17:26:01;7.10;99.90
12049;DHT22;6085;49.452;8.502;2024-02-28T17:30:06;7.00;99.90
12049;DHT22;6085;49.452;8.502;2024-02-28T17:34:08;6.80;99.90
12049;DHT22;6085;49.452;8.502;2024-02-28T17:38:11;6.70;99.90
12049;DHT22;6085;49.452;8.502;2024-02-28T17:42:13;6.50;99.90
12049;DHT22;6085;49.452;8.502;2024-02-28T17:46:16;6.50;99.90
12049;DHT22;6085;49.452;8.502;2024-02-28T17:50:18;6.30;99.90
12049;DHT22;6085;49.452;8.502;2024-02-28T17:54:19;6.20;99.90
12049;DHT22;6085;49.452;8.502;2024-02-28T17:58:21;6.10;99.90
12049;DHT22;6085;49.452;8.502;2024-02-28T18:02:25;6.00;99.90
12049;DHT22;6085;49.452;8.502;2024-02-28T18:06:27;6.00;99.90
12049;DHT22;6085;49.452;8.502;2024-02-28T18:10:29;5.80;99.90
12049;DHT22;6085;49.452;8.502;2024-02-28T18:14:31;5.80;99.90
12049;DHT22;6085;49.452;8.502;2024-02-28T18:18:34;5.70;99.90
12049;DHT22;6085;49.452;8.502;2024-02-28T18:22:36;5.60;99.90
12049;DHT22;6085;49.452;8.502;2024-02-28T18:26:38;5.50;99.90
12049;DHT22;6085;49.452;8.502;2024-02-28T18:30:40;5.50;99.90
12049;DHT22;6085;49.452;8.502;2024-02-28T18:34:44;5.50;99.90
12049;DHT22;6085;49.452;8.502;2024-02-28T18:38:47;5.40;99.90
12049;DHT22;6085;49.452;8.502;2024-02-28T18:42:49;5.40;99.90
12049;DHT22;6085;49.452;8.502;2024-02-28T18:46:51;5.30;99.90
12049;DHT22;6085;49.452;8.502;2024-02-28T18:50:54;5.20;99.90
12049;DHT22;6085;49.452;8.502;2024-02-28T18:54:58;5.00;99.90
12049;DHT22;6085;49.452;8.502;2024-02-28T18:59:00;5.00;99.90
12049;DHT22;6085;49.452;8.502;2024-02-28T19:03:02;4.90;99.90
12049;DHT22;6085;49.452;8.502;2024-02-28T19:07:06;4.80;99.90
12049;DHT22;6085;49.452;8.502;2024-02-28T19:11:08;4.80;99.90
12049;DHT22;6085;49.452;8.502;2024-02-28T19:15:10;4.80;99.90
12049;DHT22;6085;49.452;8.502;2024-02-28T19:19:12;4.70;99.90
12049;DHT22;6085;49.452;8.502;2024-02-28T19:23:15;4.60;99.90
12049;DHT22;6085;49.452;8.502;2024-02-28T19:27:20;4.50;99.90
12049;DHT22;6085;49.452;8.502;2024-02-28T19:31:21;4.50;99.90
12049;DHT22;6085;49.452;8.502;2024-02-28T19:35:24;4.40;99.90
12049;DHT22;6085;49.452;8.502;2024-02-28T19:39:27;4.30;99.90
12049;DHT22;6085;49.452;8.502;2024-02-28T19:43:29;4.20;99.90
12049;DHT22;6085;49.452;8.502;2024-02-28T19:47:32;4.20;99.90
12049;DHT22;6085;49.452;8.502;2024-02-28T19:51:34;4.30;99.90
12049;DHT22;6085;49.452;8.502;2024-02-28T19:55:37;4.40;99.90
12049;DHT22;6085;49.452;8.502;2024-02-28T19:59:39;4.60;99.90
12049;DHT22;6085;49.452;8.502;2024-02-28T20:03:41;4.60;99.90
12049;DHT22;6085;49.452;8.502;2024-02-28T20:07:43;4.60;99.90
12049;DHT22;6085;49.452;8.502;2024-02-28T20:11:46;4.80;99.90
12049;DHT22;6085;49.452;8.502;2024-02-28T20:15:49;5.00;99.90
12049;DHT22;6085;49.452;8.502;2024-02-28T20:19:51;5.00;99.90
12049;DHT22;6085;49.452;8.502;2024-02-28T20:23:52;4.90;99.90
12049;DHT22;6085;49.452;8.502;2024-02-28T20:27:56;4.80;99.90
12049;DHT22;6085;49.452;8.502;2024-02-28T20:31:57;4.90;99.90
12049;DHT22;6085;49.452;8.502;2024-02-28T20:35:59;4.90;99.90
12049;DHT22;6085;49.452;8.502;2024-02-28T20:40:01;4.80;99.90
12049;DHT22;6085;49.452;8.502;2024-02-28T20:44:06;4.70;99.90
12049;DHT22;6085;49.452;8.502;2024-02-28T20:48:10;4.80;99.90
12049;DHT22;6085;49.452;8.502;2024-02-28T20:52:12;4.70;99.90
12049;DHT22;6085;49.452;8.502;2024-02-28T20:56:13;4.60;99.90
12049;DHT22;6085;49.452;8.502;2024-02-28T21:00:17;4.70;99.90
12049;DHT22;6085;49.452;8.502;2024-02-28T21:04:20;4.60;99.90
12049;DHT22;6085;49.452;8.502;2024-02-28T21:08:22;4.60;99.90
12049;DHT22;6085;49.452;8.502;2024-02-28T21:12:25;4.50;99.90
12049;DHT22;6085;49.452;8.502;2024-02-28T21:16:31;4.30;99.90
12049;DHT22;6085;49.452;8.502;2024-02-28T21:20:33;4.10;99.90
12049;DHT22;6085;49.452;8.502;2024-02-28T21:24:36;3.90;99.90
12049;DHT22;6085;49.452;8.502;2024-02-28T21:28:38;3.90;99.90
12049;DHT22;6085;49.452;8.502;2024-02-28T21:32:41;3.70;99.90
12049;DHT22;6085;49.452;8.502;2024-02-28T21:36:43;3.60;99.90
12049;DHT22;6085;49.452;8.502;2024-02-28T21:40:45;3.50;99.90
12049;DHT22;6085;49.452;8.502;2024-02-28T21:44:47;3.50;99.90
12049;DHT22;6085;49.452;8.502;2024-02-28T21:48:50;3.50;99.90
12049;DHT22;6085;49.452;8.502;2024-02-28T21:52:52;3.60;99.90
12049;DHT22;6085;49.452;8.502;2024-02-28T21:56:54;3.90;99.90
12049;DHT22;6085;49.452;8.502;2024-02-28T22:00:56;4.10;99.90
12049;DHT22;6085;49.452;8.502;2024-02-28T22:04:59;4.00;99.90
12049;DHT22;6085;49.452;8.502;2024-02-28T22:09:01;4.00;99.90
12049;DHT22;6085;49.452;8.502;2024-02-28T22:13:03;4.00;99.90
12049;DHT22;6085;49.452;8.502;2024-02-28T22:17:06;4.10;99.90
12049;DHT22;6085;49.452;8.502;2024-02-28T22:21:09;4.10;99.90
12049;DHT22;6085;49.452;8.502;2024-02-28T22:25:11;4.20;99.90
12049;DHT22;6085;49.452;8.502;2024-02-28T22:29:13;4.30;99.90
12049;DHT22;6085;49.452;8.502;2024-02-28T22:33:18;4.30;99.90
12049;DHT22;6085;49.452;8.502;2024-02-28T22:37:22;4.30;99.90
12049;DHT22;6085;49.452;8.502;2024-02-28T22:41:23;4.30;99.90
12049;DHT22;6085;49.452;8.502;2024-02-28T22:45:25;4.20;99.90
12049;DHT22;6085;49.452;8.502;2024-02-28T22:49:27;4.10;99.90
12049;DHT22;6085;49.452;8.502;2024-02-28T22:53:30;4.10;99.90
12049;DHT22;6085;49.452;8.502;2024-02-28T22:57:32;4.10;99.90
12049;DHT22;6085;49.452;8.502;2024-02-28T23:01:34;4.10;99.90
12049;DHT22;6085;49.452;8.502;2024-02-28T23:05:36;4.20;99.90
12049;DHT22;6085;49.452;8.502;2024-02-28T23:09:40;4.20;99.90
12049;DHT22;6085;49.452;8.502;2024-02-28T23:13:41;4.30;99.90
12049;DHT22;6085;49.452;8.502;2024-02-28T23:17:44;4.30;99.90
12049;DHT22;6085;49.452;8.502;2024-02-28T23:21:47;4.30;99.90
12049;DHT22;6085;49.452;8.502;2024-02-28T23:25:50;4.30;99.90
12049;DHT22;6085;49.452;8.502;2024-02-28T23:29:52;4.20;99.90
12049;DHT22;6085;49.452;8.502;2024-02-28T23:33:54;4.10;99.90
12049;DHT22;6085;49.452;8.502;2024-02-28T23:37:56;4.00;99.90
12049;DHT22;6085;49.452;8.502;2024-02-28T23:41:59;3.90;99.90
12049;DHT22;6085;49.452;8.502;2024-02-28T23:46:01;3.70;99.90
12049;DHT22;6085;49.452;8.502;2024-02-28T23:50:03;3.60;99.90
12049;DHT22;6085;49.452;8.502;2024-02-28T23:54:05;3.50;99.90
12049;DHT22;6085;49.452;8.502;2024-02-28T23:58:09;3.40;99.90
